Impacts METAR Board
IDs:

KATL - Atlanta/Hartsfield-J, GA, US

Updated at: 0400 UTC 10 Dec 2018
Potential Impact None Slight Moderate High
Time 09/16Z 09/17Z 09/18Z 09/19Z 09/20Z 09/21Z 09/22Z 09/23Z 10/00Z 10/01Z 10/02Z 10/03Z 10/04Z
Temp37 37 38 37 37 37 37 37 38 38 39 39 39
Dewpt34 34 34 33 34 33 34 34 34 34 34 35 36
Altim29.98 29.97 29.95 29.95 29.95 29.96 29.97 29.98 29.99 30.00 30.00 30.00 30.01
VIS10 6 4 8 6 8 2 3 10 10 8 10 7
CIG9 9 9 9 9 10 6 6 9 12 12 10 8
CoverOVCOVCOVCOVCOVCOVCOVCOVCOVCOVCOVCOVCOVC
FltCatIFRIFRIFRIFRIFRMVFRIFRIFRIFRMVFRMVFRMVFRIFR
WX---DZ BR-DZ BR---DZ BR---DZ BR-DZ BR-DZ BR---DZ-DZ-DZ
WDir707070705060504040303020330
WSpd14 17 17 14 11 10 7 8 8 8 7 8 6
WGst-- 24 -- 21 21 -- -- -- -- -- -- -- --
Raw hourly METARs
KATL 091552Z COR 07014KT 10SM OVC009 03/01 A2998 RMK AO2 RAE03E00DZB03E39 SLP159 P0000 T00280011 $
KATL 091652Z 07017G24KT 6SM -DZ BR OVC009 03/01 A2997 RMK AO2 DZB49 SLP157 P0000 T00280011 $
KATL 091803Z 07017KT 4SM -DZ BR BKN009 OVC014 03/01 A2995 RMK AO2 P0000 T00330011 $
KATL 091852Z 07014G21KT 8SM OVC009 03/01 A2995 RMK AO2 DZE50 SLP147 P0000 T00280006 $
KATL 091952Z 05011G21KT 6SM -DZ BR OVC009 03/01 A2995 RMK AO2 DZB21 SLP148 P0000 T00280011 $
KATL 092052Z 06010KT 8SM OVC010 03/01 A2996 RMK AO2 DZE28 SLP152 P0000 60000 T00280006 53001 $
KATL 092152Z 05007KT 2SM -DZ BR BKN006 OVC009 03/01 A2997 RMK AO2 DZB29 SLP156 P0000 T00280011 $
KATL 092252Z 04008KT 3SM -DZ BR BKN006 OVC011 03/01 A2998 RMK AO2 SFC VIS 5 SLP159 P0000 T00280011 $
KATL 092352Z 04008KT 10SM -DZ BR BKN009 OVC015 03/01 A2999 RMK AO2 SLP163 VRY LGT PCPN P0000 60000 T00330011 10033 20028 51011 $
KATL 100052Z 03008KT 10SM BKN012 OVC020 03/01 A3000 RMK AO2 DZE50 SLP166 P0000 T00330011 $
KATL 100152Z 03007KT 8SM -DZ BKN012 OVC018 04/01 A3000 RMK AO2 SLP164 DZB03 P0000 T00390011 $
KATL 100252Z 02008KT 10SM -DZ BKN010 OVC018 04/02 A3000 RMK AO2 SLP166 VRY LGT PCPN P0000 60000 T00390017 51004 $
KATL 100352Z 33006KT 7SM -DZ BKN008 OVC012 04/02 A3001 RMK AO2 SLP169 VRY LGT PCPN P0000 T00390022 $



Page loaded:  04:16 UTC  |   08:16 PM Pacific  |   09:16 PM Mountain  |   10:16 PM Central  |   11:16 PM Eastern

 

ADVISORIES

FORECASTS

FORECASTS

OBSERVATIONS

USER TOOLS

ABOUT US